No.63koueimaru — JM6455 — position and weather

sailwx.info

Track history (hours):
 
Tides and Currents Weather Stations Pressure Air Temp Water Temp Dewpoint Dewpoint Depression Visibility Wind Speed Wind Dir Waves Ship Positions

No.63koueimaru

Last reported at 2018-Feb-16 02:49 UTC. Time now 2018-Feb-19 04:07 UTC.
Position N 42°01' E 139°48'.

Length 83 m; draft 2.3 m.

Type: Cargo ship. MMSI: 431600379.

Date/timePositionNaut miles runAvg speedWind from/ knotsBaromVisibWave heightAir tempDewpointWater temp
2018-Feb-16 02:49N 42°01' E 139°48'711.0
2018-Feb-16 02:14N 41°55' E 139°50'24 9.9
2018-Feb-15 23:48N 41°31' E 139°57'10 9.8
2018-Feb-15 22:45N 41°23' E 140°05'8 8.9
2018-Feb-15 21:49N 41°23' E 140°16'411.7
2018-Feb-15 21:30N 41°26' E 140°19'611.3
2018-Feb-15 21:00N 41°29' E 140°26'510.8
2018-Feb-15 20:30N 41°31' E 140°32'510.5
2018-Feb-15 20:00N 41°33' E 140°39'5 9.5
2018-Feb-15 19:28N 41°34' E 140°46'4 9.0
2018-Feb-15 19:01N 41°35' E 140°51'4 8.2
2018-Feb-15 18:30N 41°35' E 140°57'510.7
2018-Feb-15 18:00N 41°32' E 141°02'5 9.4
2018-Feb-15 17:30N 41°31' E 141°09'4 8.7
2018-Feb-15 17:00N 41°30' E 141°14'4 8.8
2018-Feb-15 16:30N 41°29' E 141°20'392 8.7
2018-Feb-13 19:33N 35°00' E 140°11'311.6
2018-Feb-13 19:19N 34°59' E 140°08'511.6
2018-Feb-13 18:51N 34°56' E 140°03'1311.0
2018-Feb-13 17:41N 34°53' E 139°48'512.7
2018-Feb-13 17:15N 34°57' E 139°44'411.8
2018-Feb-13 16:55N 35°01' E 139°43'511.9
2018-Feb-13 16:30N 35°06' E 139°45'611.9
2018-Feb-13 16:00N 35°11' E 139°46'511.0
2018-Feb-13 15:30N 35°17' E 139°45'510.9
2018-Feb-13 15:01N 35°22' E 139°42'510.6
2018-Feb-13 14:30N 35°26' E 139°46'611.3
2018-Feb-13 14:00N 35°23' E 139°51'1 2.4
2018-Feb-13 13:25N 35°22' E 139°53'0 0.0
2018-Feb-13 12:55N 35°22' E 139°53'0 0.0
2018-Feb-13 12:28N 35°22' E 139°53'0 0.0
2018-Feb-13 11:58N 35°22' E 139°53'0 0.0
2018-Feb-13 11:28N 35°22' E 139°53'0 0.0
2018-Feb-13 10:58N 35°22' E 139°53'0 0.0
2018-Feb-13 10:28N 35°22' E 139°53'0 0.2
2018-Feb-13 09:55N 35°22' E 139°53'0 0.0
2018-Feb-13 09:28N 35°22' E 139°53'0 0.0
2018-Feb-13 08:58N 35°22' E 139°53'0 0.0
2018-Feb-13 08:28N 35°22' E 139°53'0 0.0
2018-Feb-13 07:58N 35°22' E 139°53'0 0.0
2018-Feb-13 07:19N 35°22' E 139°53'0 0.0
2018-Feb-13 06:58N 35°22' E 139°53'0 0.1
2018-Feb-13 06:25N 35°22' E 139°53'0 0.1
2018-Feb-13 05:58N 35°22' E 139°53'0 0.1
2018-Feb-13 05:25N 35°22' E 139°53'0 0.6
2018-Feb-13 04:57N 35°22' E 139°53'0 0.0
2018-Feb-13 04:30N 35°22' E 139°53'0 0.0
2018-Feb-13 04:00N 35°22' E 139°53'0 0.0
2018-Feb-13 03:30N 35°22' E 139°53'0 0.0
2018-Feb-13 03:00N 35°22' E 139°53'0 0.0
2018-Feb-13 02:27N 35°22' E 139°53'0 0.0
2018-Feb-13 02:00N 35°22' E 139°53'0 0.0
2018-Feb-13 01:30N 35°22' E 139°53'0 0.0
2018-Feb-13 00:57N 35°22' E 139°53'1 2.4
2018-Feb-13 00:31N 35°22' E 139°52'510.2
2018-Feb-13 00:01N 35°22' E 139°46'5 9.5
2018-Feb-12 23:31N 35°18' E 139°45'510.2
2018-Feb-12 23:00N 35°13' E 139°47'510.7
2018-Feb-12 22:30N 35°07' E 139°46'510.9
2018-Feb-12 22:00N 35°02' E 139°45'7 8.5
2018-Feb-12 21:12N 34°55' E 139°46'2 8.3
2018-Feb-12 21:00N 34°54' E 139°47'38710.2
2018-Feb-11 06:56N 41°12' E 141°30'1511.6
2018-Feb-11 05:39N 41°27' E 141°29'2011.8
2018-Feb-11 03:56N 41°46' E 141°19'611.8
2018-Feb-11 03:27N 41°52' E 141°18'24 0.5
2018-Feb-09 03:00N 41°28' E 141°26'713.9
2018-Feb-09 02:30N 41°31' E 141°18'1414.1
2018-Feb-09 01:30N 41°35' E 140°60'1312.5
2018-Feb-09 00:30N 41°34' E 140°43'1312.7
2018-Feb-08 23:30N 41°27' E 140°28'30 0.7
2018-Feb-07 07:43N 41°42' E 139°54'21 9.0
2018-Feb-07 05:25N 41°23' E 140°05'9 9.6
2018-Feb-07 04:30N 41°24' E 140°17'611.4
2018-Feb-07 03:57N 41°27' E 140°24'511.6
2018-Feb-07 03:29N 41°29' E 140°30'611.6
2018-Feb-07 03:00N 41°32' E 140°37'510.9
2018-Feb-07 02:30N 41°34' E 140°44'510.9
2018-Feb-07 02:00N 41°36' E 140°50'510.1
2018-Feb-07 01:30N 41°36' E 140°57'510.5
2018-Feb-07 01:00N 41°33' E 141°03'5 9.7
2018-Feb-07 00:30N 41°31' E 141°09'5 9.8
2018-Feb-07 00:00N 41°29' E 141°15'  
Track history (hours):
 
Tides and Currents Weather Stations Pressure Air Temp Water Temp Dewpoint Dewpoint Depression Visibility Wind Speed Wind Dir Waves Ship Positions

No.63koueimaru

Last reported at 2018-Feb-16 02:49 UTC. Time now 2018-Feb-19 04:07 UTC.
Position N 42°01' E 139°48'.

Length 83 m; draft 2.3 m.

Type: Cargo ship. MMSI: 431600379.

Date/timePositionNaut miles runAvg speedWind from/ knotsBaromVisibWave heightAir tempDewpointWater temp
2018-Feb-16 02:49N 42°01' E 139°48'711.0
2018-Feb-16 02:14N 41°55' E 139°50'24 9.9
2018-Feb-15 23:48N 41°31' E 139°57'10 9.8
2018-Feb-15 22:45N 41°23' E 140°05'8 8.9
2018-Feb-15 21:49N 41°23' E 140°16'411.7
2018-Feb-15 21:30N 41°26' E 140°19'611.3
2018-Feb-15 21:00N 41°29' E 140°26'510.8
2018-Feb-15 20:30N 41°31' E 140°32'510.5
2018-Feb-15 20:00N 41°33' E 140°39'5 9.5
2018-Feb-15 19:28N 41°34' E 140°46'4 9.0
2018-Feb-15 19:01N 41°35' E 140°51'4 8.2
2018-Feb-15 18:30N 41°35' E 140°57'510.7
2018-Feb-15 18:00N 41°32' E 141°02'5 9.4
2018-Feb-15 17:30N 41°31' E 141°09'4 8.7
2018-Feb-15 17:00N 41°30' E 141°14'4 8.8
2018-Feb-15 16:30N 41°29' E 141°20'392 8.7
2018-Feb-13 19:33N 35°00' E 140°11'311.6
2018-Feb-13 19:19N 34°59' E 140°08'511.6
2018-Feb-13 18:51N 34°56' E 140°03'1311.0
2018-Feb-13 17:41N 34°53' E 139°48'512.7
2018-Feb-13 17:15N 34°57' E 139°44'411.8
2018-Feb-13 16:55N 35°01' E 139°43'511.9
2018-Feb-13 16:30N 35°06' E 139°45'611.9
2018-Feb-13 16:00N 35°11' E 139°46'511.0
2018-Feb-13 15:30N 35°17' E 139°45'510.9
2018-Feb-13 15:01N 35°22' E 139°42'510.6
2018-Feb-13 14:30N 35°26' E 139°46'611.3
2018-Feb-13 14:00N 35°23' E 139°51'1 2.4
2018-Feb-13 13:25N 35°22' E 139°53'0 0.0
2018-Feb-13 12:55N 35°22' E 139°53'0 0.0
2018-Feb-13 12:28N 35°22' E 139°53'0 0.0
2018-Feb-13 11:58N 35°22' E 139°53'0 0.0
2018-Feb-13 11:28N 35°22' E 139°53'0 0.0
2018-Feb-13 10:58N 35°22' E 139°53'0 0.0
2018-Feb-13 10:28N 35°22' E 139°53'0 0.2
2018-Feb-13 09:55N 35°22' E 139°53'0 0.0
2018-Feb-13 09:28N 35°22' E 139°53'0 0.0
2018-Feb-13 08:58N 35°22' E 139°53'0 0.0
2018-Feb-13 08:28N 35°22' E 139°53'0 0.0
2018-Feb-13 07:58N 35°22' E 139°53'0 0.0
2018-Feb-13 07:19N 35°22' E 139°53'0 0.0
2018-Feb-13 06:58N 35°22' E 139°53'0 0.1
2018-Feb-13 06:25N 35°22' E 139°53'0 0.1
2018-Feb-13 05:58N 35°22' E 139°53'0 0.1
2018-Feb-13 05:25N 35°22' E 139°53'0 0.6
2018-Feb-13 04:57N 35°22' E 139°53'0 0.0
2018-Feb-13 04:30N 35°22' E 139°53'0 0.0
2018-Feb-13 04:00N 35°22' E 139°53'0 0.0
2018-Feb-13 03:30N 35°22' E 139°53'0 0.0
2018-Feb-13 03:00N 35°22' E 139°53'0 0.0
2018-Feb-13 02:27N 35°22' E 139°53'0 0.0
2018-Feb-13 02:00N 35°22' E 139°53'0 0.0
2018-Feb-13 01:30N 35°22' E 139°53'0 0.0
2018-Feb-13 00:57N 35°22' E 139°53'1 2.4
2018-Feb-13 00:31N 35°22' E 139°52'510.2
2018-Feb-13 00:01N 35°22' E 139°46'5 9.5
2018-Feb-12 23:31N 35°18' E 139°45'510.2
2018-Feb-12 23:00N 35°13' E 139°47'510.7
2018-Feb-12 22:30N 35°07' E 139°46'510.9
2018-Feb-12 22:00N 35°02' E 139°45'7 8.5
2018-Feb-12 21:12N 34°55' E 139°46'2 8.3
2018-Feb-12 21:00N 34°54' E 139°47'38710.2
2018-Feb-11 06:56N 41°12' E 141°30'1511.6
2018-Feb-11 05:39N 41°27' E 141°29'2011.8
2018-Feb-11 03:56N 41°46' E 141°19'611.8
2018-Feb-11 03:27N 41°52' E 141°18'24 0.5
2018-Feb-09 03:00N 41°28' E 141°26'713.9
2018-Feb-09 02:30N 41°31' E 141°18'1414.1
2018-Feb-09 01:30N 41°35' E 140°60'1312.5
2018-Feb-09 00:30N 41°34' E 140°43'1312.7
2018-Feb-08 23:30N 41°27' E 140°28'30 0.7
2018-Feb-07 07:43N 41°42' E 139°54'21 9.0
2018-Feb-07 05:25N 41°23' E 140°05'9 9.6
2018-Feb-07 04:30N 41°24' E 140°17'611.4
2018-Feb-07 03:57N 41°27' E 140°24'511.6
2018-Feb-07 03:29N 41°29' E 140°30'611.6
2018-Feb-07 03:00N 41°32' E 140°37'510.9
2018-Feb-07 02:30N 41°34' E 140°44'510.9
2018-Feb-07 02:00N 41°36' E 140°50'510.1
2018-Feb-07 01:30N 41°36' E 140°57'510.5
2018-Feb-07 01:00N 41°33' E 141°03'5 9.7
2018-Feb-07 00:30N 41°31' E 141°09'5 9.8
2018-Feb-07 00:00N 41°29' E 141°15'  

Dump ship's entire track history